Time;durP1;ratioP1;P1;durP2;ratioP2;P2;SDS_P1;SDS_P2;PMS_P1;PMS_P2;Temp;Humidity;BMP_temperature;BMP_pressure;BME280_temperature;BME280_humidity;BME280_pressure;Samples;Min_cycle;Max_cycle;Signal;HPM_P1;HPM_P2
2022/09/27 00:00:41;;;;;;;;;;;;;;;6.59;100.00;97704.79;104966;1272;73017;-70
2022/09/27 00:03:28;;;;;;;;;;;;;;;6.56;100.00;97703.57;104945;1273;61291;-70
2022/09/27 00:06:04;;;;;;;;;;;;;;;6.55;100.00;97701.52;104993;1272;61408;-70
2022/09/27 00:08:31;;;;;;;;;;;;;;;6.57;100.00;97693.14;104963;1273;75959;-70
2022/09/27 00:10:59;;;;;;;;;;;;;;;6.58;100.00;97691.27;104973;1272;70100;-70
2022/09/27 00:13:26;;;;;;;;;;;;;;;6.62;100.00;97692.77;105107;1272;73506;-70
2022/09/27 00:16:00;;;;;;;;;;;;;;;6.60;100.00;97687.41;104996;1273;61358;-70
2022/09/27 00:18:26;;;;;;;;;;;;;;;6.58;100.00;97687.20;104942;1272;62093;-68
2022/09/27 00:20:53;;;;;;;;;;;;;;;6.57;100.00;97683.41;104931;1272;75322;-70
2022/09/27 00:23:20;;;;;;;;;;;;;;;6.56;100.00;97681.70;104967;1273;70177;-69
2022/09/27 00:25:56;;;;;;;;;;;;;;;6.56;100.00;97680.67;104896;1273;61325;-71
2022/09/27 00:28:23;;;;;;;;;;;;;;;6.55;100.00;97675.28;104948;1273;61248;-70
2022/09/27 00:30:49;;;;;;;;;;;;;;;6.52;100.00;97667.88;104966;1272;61280;-70
2022/09/27 00:33:16;;;;;;;;;;;;;;;6.49;100.00;97665.30;104936;1273;75300;-69
2022/09/27 00:35:43;;;;;;;;;;;;;;;6.47;100.00;97664.76;104929;1273;69360;-70
2022/09/27 00:38:10;;;;;;;;;;;;;;;6.45;100.00;97663.62;104897;1272;74172;-70
2022/09/27 00:40:37;;;;;;;;;;;;;;;6.45;100.00;97662.77;105023;1273;61305;-69
2022/09/27 00:43:13;;;;;;;;;;;;;;;6.44;100.00;97659.33;105250;1273;61142;-69
2022/09/27 00:45:39;;;;;;;;;;;;;;;6.43;100.00;97662.74;104846;1275;76375;-71
2022/09/27 00:48:05;;;;;;;;;;;;;;;6.44;100.00;97660.59;104949;1273;61262;-69
2022/09/27 00:50:36;;;;;;;;;;;;;;;6.44;100.00;97651.88;104968;1273;73426;-71
2022/09/27 00:53:09;;;;;;;;;;;;;;;6.46;100.00;97649.46;104940;1272;61373;-70
2022/09/27 00:55:38;;;;;;;;;;;;;;;6.49;100.00;97644.31;104978;1273;61255;-68
2022/09/27 00:58:05;;;;;;;;;;;;;;;6.53;100.00;97639.73;104926;1272;76665;-71
2022/09/27 01:00:32;;;;;;;;;;;;;;;6.59;100.00;97635.84;104958;1273;69706;-71
2022/09/27 01:02:59;;;;;;;;;;;;;;;6.63;100.00;97626.56;104935;1273;74102;-70
2022/09/27 01:05:27;;;;;;;;;;;;;;;6.64;100.00;97625.04;104941;1273;61416;-70
2022/09/27 01:07:55;;;;;;;;;;;;;;;6.66;100.00;97622.80;104981;1273;61787;-68
2022/09/27 01:10:24;;;;;;;;;;;;;;;6.64;100.00;97612.53;104817;1272;76323;-69
2022/09/27 01:13:09;;;;;;;;;;;;;;;6.63;100.00;97609.05;104962;1272;70425;-68
2022/09/27 01:15:38;;;;;;;;;;;;;;;6.62;100.00;97606.83;104933;1272;73703;-69
2022/09/27 01:18:18;;;;;;;;;;;;;;;6.58;100.00;97612.72;104955;1273;61382;-69
2022/09/27 01:20:44;;;;;;;;;;;;;;;6.55;100.00;97605.73;104886;1273;61692;-70
2022/09/27 01:23:31;;;;;;;;;;;;;;;6.53;100.00;97601.81;104917;1274;61581;-70
2022/09/27 01:26:04;;;;;;;;;;;;;;;6.49;100.00;97599.46;104960;1273;70505;-70
2022/09/27 01:28:31;;;;;;;;;;;;;;;6.45;100.00;97591.81;104955;1272;73814;-70
2022/09/27 01:30:58;;;;;;;;;;;;;;;6.44;100.00;97592.84;104922;1273;61348;-70
2022/09/27 01:33:47;;;;;;;;;;;;;;;6.48;100.00;97588.85;104964;1273;61421;-70
2022/09/27 01:36:14;;;;;;;;;;;;;;;6.51;100.00;97581.88;104937;1273;75206;-70
2022/09/27 01:38:45;;;;;;;;;;;;;;;6.54;100.00;97580.02;104886;1275;61275;-70
2022/09/27 01:41:21;;;;;;;;;;;;;;;6.59;100.00;97579.35;104972;1273;74781;-69
2022/09/27 01:43:58;;;;;;;;;;;;;;;6.62;100.00;97578.92;104929;1272;61421;-70
2022/09/27 01:46:26;;;;;;;;;;;;;;;6.65;100.00;97574.35;104935;1272;62081;-70
2022/09/27 01:48:54;;;;;;;;;;;;;;;6.66;100.00;97568.27;104927;1273;76280;-70
2022/09/27 01:51:24;;;;;;;;;;;;;;;6.66;100.00;97563.67;104937;1272;70007;-71
2022/09/27 01:53:55;;;;;;;;;;;;;;;6.66;100.00;97567.18;104984;1272;74539;-70
2022/09/27 01:56:26;;;;;;;;;;;;;;;6.65;100.00;97569.21;104959;1273;61344;-69
2022/09/27 01:58:58;;;;;;;;;;;;;;;6.64;100.00;97573.12;105008;1272;61353;-70
2022/09/27 02:01:27;;;;;;;;;;;;;;;6.65;100.00;97572.04;104899;1273;75350;-69
2022/09/27 02:03:56;;;;;;;;;;;;;;;6.65;100.00;97564.12;104895;1273;70029;-69
2022/09/27 02:06:26;;;;;;;;;;;;;;;6.65;100.00;97559.35;104906;1272;73493;-70
2022/09/27 02:09:02;;;;;;;;;;;;;;;6.65;100.00;97562.51;104932;1273;61264;-70
2022/09/27 02:11:28;;;;;;;;;;;;;;;6.65;100.00;97562.65;104920;1272;61882;-69
2022/09/27 02:13:59;;;;;;;;;;;;;;;6.64;100.00;97560.41;104927;1272;61287;-70
2022/09/27 02:16:31;;;;;;;;;;;;;;;6.64;100.00;97560.66;104937;1273;69877;-69
2022/09/27 02:19:01;;;;;;;;;;;;;;;6.62;100.00;97559.20;104930;1272;73367;-69
2022/09/27 02:21:36;;;;;;;;;;;;;;;6.59;100.00;97556.54;104943;1272;61307;-69
2022/09/27 02:24:04;;;;;;;;;;;;;;;6.58;100.00;97557.20;104966;1273;61275;-69
2022/09/27 02:26:43;;;;;;;;;;;;;;;6.54;100.00;97557.45;105031;1272;75155;-69
2022/09/27 02:29:13;;;;;;;;;;;;;;;6.50;100.00;97554.91;104960;1273;70887;-69
2022/09/27 02:31:40;;;;;;;;;;;;;;;6.49;100.00;97542.70;104960;1273;73027;-70
2022/09/27 02:34:18;;;;;;;;;;;;;;;6.48;100.00;97533.90;104905;1272;61261;-69
2022/09/27 02:36:47;;;;;;;;;;;;;;;6.49;100.00;97529.81;104976;1272;61342;-70
2022/09/27 02:39:14;;;;;;;;;;;;;;;6.51;100.00;97526.98;105020;1273;76653;-69
2022/09/27 02:41:40;;;;;;;;;;;;;;;6.54;100.00;97522.73;104906;1272;70224;-70
2022/09/27 02:44:09;;;;;;;;;;;;;;;6.55;100.00;97523.16;104913;1273;61273;-69
2022/09/27 02:46:50;;;;;;;;;;;;;;;6.55;100.00;97527.71;104905;1272;61178;-69
2022/09/27 02:49:30;;;;;;;;;;;;;;;6.56;100.00;97529.44;104948;1272;61359;-69
2022/09/27 02:51:57;;;;;;;;;;;;;;;6.56;100.00;97521.69;104967;1273;75258;-70
2022/09/27 02:54:28;;;;;;;;;;;;;;;6.56;100.00;97521.85;104940;1273;61281;-70
2022/09/27 02:56:58;;;;;;;;;;;;;;;6.55;100.00;97528.27;104925;1272;74346;-69
2022/09/27 02:59:34;;;;;;;;;;;;;;;6.54;100.00;97527.49;104956;1272;61335;-69
2022/09/27 03:02:16;;;;;;;;;;;;;;;6.53;100.00;97519.97;104929;1272;61271;-70
2022/09/27 03:04:43;;;;;;;;;;;;;;;6.55;100.00;97515.26;104938;1272;74950;-70
2022/09/27 03:07:11;;;;;;;;;;;;;;;6.58;100.00;97511.67;104953;1273;69417;-69
2022/09/27 03:09:46;;;;;;;;;;;;;;;6.59;100.00;97509.61;104978;1273;71666;-70
2022/09/27 03:12:19;;;;;;;;;;;;;;;6.59;100.00;97512.08;104924;1273;61330;-70
2022/09/27 03:14:46;;;;;;;;;;;;;;;6.60;100.00;97514.14;104959;1272;61345;-70
2022/09/27 03:17:12;;;;;;;;;;;;;;;6.59;100.00;97515.27;104927;1273;61365;-69
2022/09/27 03:19:39;;;;;;;;;;;;;;;6.59;100.00;97507.18;104903;1275;68539;-69
2022/09/27 03:22:06;;;;;;;;;;;;;;;6.58;100.00;97505.80;104923;1273;74535;-69
2022/09/27 03:24:32;;;;;;;;;;;;;;;6.57;100.00;97503.80;104917;1273;61343;-70
2022/09/27 03:26:59;;;;;;;;;;;;;;;6.56;100.00;97504.74;104960;1272;61242;-69
2022/09/27 03:29:25;;;;;;;;;;;;;;;6.55;100.00;97506.95;104934;1273;61383;-70
2022/09/27 03:31:52;;;;;;;;;;;;;;;6.54;100.00;97506.14;104928;1273;61281;-69
2022/09/27 03:34:18;;;;;;;;;;;;;;;6.52;100.00;97498.71;104940;1273;61580;-70
2022/09/27 03:36:45;;;;;;;;;;;;;;;6.51;100.00;97495.20;104932;1272;61393;-70
2022/09/27 03:39:11;;;;;;;;;;;;;;;6.52;100.00;97490.38;105003;1273;61213;-69
2022/09/27 03:41:38;;;;;;;;;;;;;;;6.52;100.00;97487.23;105016;1273;61372;-69
2022/09/27 03:44:04;;;;;;;;;;;;;;;6.51;100.00;97481.83;105014;1273;61285;-68
2022/09/27 03:46:30;;;;;;;;;;;;;;;6.49;100.00;97481.77;105029;1273;61477;-69
2022/09/27 03:48:57;;;;;;;;;;;;;;;6.48;100.00;97485.39;104910;1273;61288;-70
2022/09/27 03:51:24;;;;;;;;;;;;;;;6.47;100.00;97490.09;104943;1273;61274;-69
2022/09/27 03:53:50;;;;;;;;;;;;;;;6.45;100.00;97489.88;104938;1272;61388;-70
2022/09/27 03:56:17;;;;;;;;;;;;;;;6.43;100.00;97487.01;104917;1273;62006;-70
2022/09/27 03:58:43;;;;;;;;;;;;;;;6.42;100.00;97482.30;104898;1273;61297;-69
2022/09/27 04:01:10;;;;;;;;;;;;;;;6.42;100.00;97477.70;104947;1273;61262;-70
2022/09/27 04:03:37;;;;;;;;;;;;;;;6.42;100.00;97478.41;104902;1273;61285;-70
2022/09/27 04:06:04;;;;;;;;;;;;;;;6.42;100.00;97473.86;104925;1273;61290;-69
2022/09/27 04:08:30;;;;;;;;;;;;;;;6.42;100.00;97474.54;104912;1273;70522;-70
2022/09/27 04:10:57;;;;;;;;;;;;;;;6.42;100.00;97469.13;104960;1272;73415;-70
2022/09/27 04:13:24;;;;;;;;;;;;;;;6.40;100.00;97465.71;104930;1273;61427;-70
2022/09/27 04:15:50;;;;;;;;;;;;;;;6.40;100.00;97464.84;104944;1273;61265;-72
2022/09/27 04:18:17;;;;;;;;;;;;;;;6.38;100.00;97465.69;104931;1273;75222;-70
2022/09/27 04:20:43;;;;;;;;;;;;;;;6.37;100.00;97463.81;104918;1273;61383;-69
2022/09/27 04:23:10;;;;;;;;;;;;;;;6.36;100.00;97468.14;104944;1273;72935;-70
2022/09/27 04:25:38;;;;;;;;;;;;;;;6.35;100.00;97469.41;104947;1273;61254;-70
2022/09/27 04:28:05;;;;;;;;;;;;;;;6.35;100.00;97469.95;104944;1272;61907;-69
2022/09/27 04:30:31;;;;;;;;;;;;;;;6.34;100.00;97468.76;104937;1273;76165;-69
2022/09/27 04:32:58;;;;;;;;;;;;;;;6.33;100.00;97467.79;104896;1272;61338;-69
2022/09/27 04:38:09;;;;;;;;;;;;;;;6.32;100.00;97469.30;104910;1273;61403;-69
2022/09/27 04:40:36;;;;;;;;;;;;;;;6.31;100.00;97469.20;104959;1272;61370;-70
2022/09/27 04:43:03;;;;;;;;;;;;;;;6.31;100.00;97468.70;105037;1273;75396;-70
2022/09/27 04:45:30;;;;;;;;;;;;;;;6.30;100.00;97469.27;104843;1274;67767;-70
2022/09/27 04:47:56;;;;;;;;;;;;;;;6.31;100.00;97459.86;104936;1273;61328;-71
2022/09/27 04:50:23;;;;;;;;;;;;;;;6.32;100.00;97460.30;104994;1272;61272;-71
2022/09/27 04:52:53;;;;;;;;;;;;;;;6.33;100.00;97460.95;104996;1273;61289;-68
2022/09/27 04:55:20;;;;;;;;;;;;;;;6.34;100.00;97461.02;104851;1275;76202;-70
2022/09/27 04:57:47;;;;;;;;;;;;;;;6.36;100.00;97453.61;105048;1273;69200;-70
2022/09/27 05:00:14;;;;;;;;;;;;;;;6.38;100.00;97451.55;104972;1273;74500;-70
2022/09/27 05:02:42;;;;;;;;;;;;;;;6.41;100.00;97448.70;105035;1273;61422;-70
2022/09/27 05:05:09;;;;;;;;;;;;;;;6.46;100.00;97445.89;105019;1273;61800;-69
2022/09/27 05:07:37;;;;;;;;;;;;;;;6.49;100.00;97440.52;105051;1273;75188;-70
2022/09/27 05:10:03;;;;;;;;;;;;;;;6.53;100.00;97432.81;104828;1273;68833;-70
2022/09/27 05:12:30;;;;;;;;;;;;;;;6.58;100.00;97430.66;104930;1273;74669;-70
2022/09/27 05:14:56;;;;;;;;;;;;;;;6.66;100.00;97429.86;104999;1273;61355;-71
2022/09/27 05:17:23;;;;;;;;;;;;;;;6.75;100.00;97429.71;104970;1272;61315;-69
2022/09/27 05:19:49;;;;;;;;;;;;;;;6.85;100.00;97430.91;105014;1273;61383;-69
2022/09/27 05:22:17;;;;;;;;;;;;;;;6.92;100.00;97429.80;105110;1273;70645;-71
2022/09/27 05:24:43;;;;;;;;;;;;;;;7.02;100.00;97431.54;105357;1272;72213;-69
2022/09/27 05:27:12;;;;;;;;;;;;;;;7.12;100.00;97434.98;104949;1276;61328;-70
2022/09/27 05:29:38;;;;;;;;;;;;;;;7.21;100.00;97430.95;104972;1272;62338;-70
2022/09/27 05:32:05;;;;;;;;;;;;;;;7.31;100.00;97433.91;105002;1273;75660;-70
2022/09/27 05:34:31;;;;;;;;;;;;;;;7.39;100.00;97437.45;105038;1273;61410;-70
2022/09/27 05:36:58;;;;;;;;;;;;;;;7.53;100.00;97438.48;104996;1273;61247;-71
2022/09/27 05:39:24;;;;;;;;;;;;;;;7.68;100.00;97437.80;104957;1272;61420;-71
2022/09/27 05:41:54;;;;;;;;;;;;;;;7.77;100.00;97438.15;104942;1273;61272;-70
2022/09/27 05:44:20;;;;;;;;;;;;;;;7.93;100.00;97436.34;104928;1273;76337;-70
2022/09/27 05:46:47;;;;;;;;;;;;;;;8.02;100.00;97433.14;104934;1275;69381;-70
2022/09/27 05:49:13;;;;;;;;;;;;;;;8.11;100.00;97429.69;104904;1274;61373;-70
2022/09/27 05:51:40;;;;;;;;;;;;;;;8.20;100.00;97429.88;104934;1273;61393;-70
2022/09/27 05:54:06;;;;;;;;;;;;;;;8.30;100.00;97435.79;104956;1273;61284;-71
2022/09/27 05:56:33;;;;;;;;;;;;;;;8.45;100.00;97432.98;104940;1273;61380;-70
2022/09/27 05:58:59;;;;;;;;;;;;;;;8.58;100.00;97427.63;104937;1273;61287;-70
2022/09/27 06:01:26;;;;;;;;;;;;;;;8.73;100.00;97431.46;104901;1272;74355;-70
2022/09/27 06:03:53;;;;;;;;;;;;;;;8.88;100.00;97424.91;104917;1273;61289;-69
2022/09/27 06:06:22;;;;;;;;;;;;;;;8.99;100.00;97420.58;104871;1274;61121;-69
2022/09/27 06:08:48;;;;;;;;;;;;;;;9.11;100.00;97422.05;104929;1273;76312;-70
2022/09/27 06:11:15;;;;;;;;;;;;;;;9.19;100.00;97424.94;104917;1273;61372;-70
2022/09/27 06:13:41;;;;;;;;;;;;;;;9.26;100.00;97431.79;104961;1273;61388;-70
2022/09/27 06:16:09;;;;;;;;;;;;;;;9.34;100.00;97433.90;104898;1273;61383;-69
2022/09/27 06:18:37;;;;;;;;;;;;;;;9.40;100.00;97432.63;104970;1273;61392;-70
2022/09/27 06:21:04;;;;;;;;;;;;;;;9.45;100.00;97428.18;104933;1273;76368;-70
2022/09/27 06:23:34;;;;;;;;;;;;;;;9.49;100.00;97424.81;105026;1273;68809;-70
2022/09/27 06:26:02;;;;;;;;;;;;;;;9.56;100.00;97421.91;104951;1273;72642;-70
2022/09/27 06:28:28;;;;;;;;;;;;;;;9.65;100.00;97418.25;104869;1274;61303;-70
2022/09/27 06:30:55;;;;;;;;;;;;;;;9.74;100.00;97416.41;104932;1273;61279;-70
2022/09/27 06:33:22;;;;;;;;;;;;;;;9.80;100.00;97416.89;104714;1276;158459;-68
2022/09/27 06:35:49;;;;;;;;;;;;;;;9.86;100.00;97419.00;104925;1273;69238;-71
2022/09/27 06:38:17;;;;;;;;;;;;;;;9.95;100.00;97416.84;104924;1273;74051;-71
2022/09/27 06:40:46;;;;;;;;;;;;;;;10.00;100.00;97413.20;104977;1274;61302;-70
2022/09/27 06:43:14;;;;;;;;;;;;;;;10.10;100.00;97412.60;104954;1273;61188;-71
2022/09/27 06:45:41;;;;;;;;;;;;;;;10.20;100.00;97411.52;104902;1273;75398;-70
2022/09/27 06:48:09;;;;;;;;;;;;;;;10.30;100.00;97405.01;105000;1273;69058;-70
2022/09/27 06:50:36;;;;;;;;;;;;;;;10.45;100.00;97401.68;104928;1273;72371;-70
2022/09/27 06:53:03;;;;;;;;;;;;;;;10.61;100.00;97403.44;104932;1273;61376;-70
2022/09/27 06:55:30;;;;;;;;;;;;;;;10.71;100.00;97404.73;104924;1273;61354;-70
2022/09/27 07:00:45;;;;;;;;;;;;;;;10.89;100.00;97402.52;104934;1273;69482;-70
2022/09/27 07:03:13;;;;;;;;;;;;;;;10.98;100.00;97400.12;105132;1273;73299;-71
2022/09/27 07:05:43;;;;;;;;;;;;;;;11.04;100.00;97397.92;104954;1273;61236;-70
2022/09/27 07:08:11;;;;;;;;;;;;;;;11.14;100.00;97390.27;104969;1273;61295;-72
2022/09/27 07:10:38;;;;;;;;;;;;;;;11.25;100.00;97386.48;105020;1273;75627;-71
2022/09/27 07:13:04;;;;;;;;;;;;;;;11.34;100.00;97387.51;104990;1273;70195;-70
2022/09/27 07:15:31;;;;;;;;;;;;;;;11.44;100.00;97387.04;105027;1273;61365;-70
2022/09/27 07:17:58;;;;;;;;;;;;;;;11.53;100.00;97385.77;104999;1273;61401;-70
2022/09/27 07:20:25;;;;;;;;;;;;;;;11.61;100.00;97380.73;104991;1274;61301;-70
2022/09/27 07:22:53;;;;;;;;;;;;;;;11.69;100.00;97379.29;104956;1272;75515;-70
2022/09/27 07:25:20;;;;;;;;;;;;;;;11.81;100.00;97380.90;104928;1273;61267;-70
2022/09/27 07:27:47;;;;;;;;;;;;;;;11.97;100.00;97378.19;104981;1273;73914;-70
2022/09/27 07:30:13;;;;;;;;;;;;;;;12.11;100.00;97375.02;104934;1273;61420;-69
2022/09/27 07:32:41;;;;;;;;;;;;;;;12.22;100.00;97370.69;104937;1274;61799;-70
2022/09/27 07:35:08;;;;;;;;;;;;;;;12.33;100.00;97372.27;104943;1273;76300;-71
2022/09/27 07:37:36;;;;;;;;;;;;;;;12.49;100.00;97370.63;104997;1274;70255;-70
2022/09/27 07:40:06;;;;;;;;;;;;;;;12.65;100.00;97372.05;104961;1273;73995;-71
2022/09/27 07:42:32;;;;;;;;;;;;;;;12.83;100.00;97370.61;104970;1274;61539;-69
2022/09/27 07:44:59;;;;;;;;;;;;;;;13.00;100.00;97373.14;104972;1273;61191;-71
2022/09/27 07:47:26;;;;;;;;;;;;;;;13.13;100.00;97368.20;104933;1273;61201;-69
2022/09/27 07:49:52;;;;;;;;;;;;;;;13.24;100.00;97364.83;104946;1273;70329;-71
2022/09/27 07:52:19;;;;;;;;;;;;;;;13.28;100.00;97362.58;104905;1274;61391;-70
2022/09/27 07:54:46;;;;;;;;;;;;;;;13.33;100.00;97362.77;104955;1274;61280;-69
2022/09/27 07:57:14;;;;;;;;;;;;;;;13.38;100.00;97361.75;104973;1273;61291;-69
2022/09/27 07:59:40;;;;;;;;;;;;;;;13.40;100.00;97361.33;104969;1273;76255;-69
2022/09/27 08:02:14;;;;;;;;;;;;;;;13.41;100.00;97358.61;104941;1273;69519;-69
2022/09/27 08:04:42;;;;;;;;;;;;;;;13.38;100.00;97360.48;104918;1274;71926;-69
2022/09/27 08:07:09;;;;;;;;;;;;;;;13.37;100.00;97359.87;104971;1274;61327;-69
2022/09/27 08:09:36;;;;;;;;;;;;;;;13.42;100.00;97355.45;105019;1273;62707;-69
2022/09/27 08:12:03;;;;;;;;;;;;;;;13.50;100.00;97358.54;104976;1274;61399;-69
2022/09/27 08:14:30;;;;;;;;;;;;;;;13.54;100.00;97357.91;104958;1273;69919;-69
2022/09/27 08:16:56;;;;;;;;;;;;;;;13.62;100.00;97362.92;104960;1273;73588;-70
2022/09/27 08:19:24;;;;;;;;;;;;;;;13.70;100.00;97363.62;104949;1274;61367;-70
2022/09/27 08:21:53;;;;;;;;;;;;;;;13.76;100.00;97366.39;104953;1274;61327;-70
2022/09/27 08:24:20;;;;;;;;;;;;;;;13.83;100.00;97360.91;104973;1274;75335;-69
2022/09/27 08:26:47;;;;;;;;;;;;;;;13.93;100.00;97355.09;104950;1273;69116;-70
2022/09/27 08:29:13;;;;;;;;;;;;;;;13.96;100.00;97347.02;104994;1273;61414;-69
2022/09/27 08:31:40;;;;;;;;;;;;;;;13.99;100.00;97348.17;105004;1272;61383;-70
2022/09/27 08:34:06;;;;;;;;;;;;;;;14.04;100.00;97346.36;104946;1274;61150;-70
2022/09/27 08:36:36;;;;;;;;;;;;;;;14.10;100.00;97341.11;104954;1273;61212;-69
2022/09/27 08:39:03;;;;;;;;;;;;;;;14.15;100.00;97337.41;104922;1274;70427;-69
2022/09/27 08:41:39;;;;;;;;;;;;;;;14.18;100.00;97336.70;104981;1274;74205;-69
2022/09/27 08:44:05;;;;;;;;;;;;;;;14.16;100.00;97335.46;104947;1274;61292;-69
2022/09/27 08:46:40;;;;;;;;;;;;;;;14.16;100.00;97333.09;104941;1273;61292;-69
2022/09/27 08:49:14;;;;;;;;;;;;;;;14.15;100.00;97335.02;104946;1274;74583;-69
2022/09/27 08:51:42;;;;;;;;;;;;;;;14.21;100.00;97331.66;104970;1273;69213;-69
2022/09/27 08:54:19;;;;;;;;;;;;;;;14.35;100.00;97332.73;104951;1274;72926;-70
2022/09/27 08:56:48;;;;;;;;;;;;;;;14.46;100.00;97334.83;104932;1273;61364;-68
2022/09/27 08:59:20;;;;;;;;;;;;;;;14.57;100.00;97329.91;104858;1275;61253;-67
2022/09/27 09:01:48;;;;;;;;;;;;;;;14.74;100.00;97328.09;105122;1273;75166;-70
2022/09/27 09:04:21;;;;;;;;;;;;;;;14.91;100.00;97327.00;104978;1273;69481;-69
2022/09/27 09:06:54;;;;;;;;;;;;;;;14.99;100.00;97320.85;104930;1273;74562;-69
2022/09/27 09:09:36;;;;;;;;;;;;;;;15.08;100.00;97323.75;104766;1275;61489;-69
2022/09/27 09:15:26;;;;;;;;;;;;;;;15.22;100.00;97314.30;104931;1273;75380;-68
2022/09/27 09:17:53;;;;;;;;;;;;;;;15.27;100.00;97315.29;104692;1278;69422;-69
2022/09/27 09:20:37;;;;;;;;;;;;;;;15.41;100.00;97306.54;104657;1277;61361;-69
2022/09/27 09:23:07;;;;;;;;;;;;;;;15.65;100.00;97294.16;104715;1277;61407;-69
2022/09/27 09:25:33;;;;;;;;;;;;;;;15.82;100.00;97286.55;104737;1277;61487;-70
2022/09/27 09:27:59;;;;;;;;;;;;;;;15.94;100.00;97279.92;104685;1277;61283;-69
2022/09/27 09:30:49;;;;;;;;;;;;;;;16.07;100.00;97273.45;104740;1277;61571;-69
2022/09/27 09:33:18;;;;;;;;;;;;;;;16.19;100.00;97273.84;103970;1284;73229;-70
2022/09/27 09:35:49;;;;;;;;;;;;;;;16.29;100.00;97268.67;104109;1284;63176;-69
2022/09/27 09:38:23;;;;;;;;;;;;;;;16.33;100.00;97260.91;104094;1284;62269;-69
2022/09/27 09:40:59;;;;;;;;;;;;;;;16.34;100.00;97258.29;104129;1283;75441;-70
2022/09/27 09:43:34;;;;;;;;;;;;;;;16.49;100.00;97256.75;104145;1284;70267;-70
2022/09/27 09:46:13;;;;;;;;;;;;;;;16.75;100.00;97252.69;104126;1283;74498;-70
2022/09/27 09:48:42;;;;;;;;;;;;;;;17.02;100.00;97251.39;104260;1280;61444;-70
2022/09/27 09:51:12;;;;;;;;;;;;;;;17.25;100.00;97248.55;104515;1279;61942;-70
2022/09/27 09:53:43;;;;;;;;;;;;;;;17.38;100.00;97246.92;104528;1280;75355;-71
2022/09/27 09:56:15;;;;;;;;;;;;;;;17.45;100.00;97248.84;104528;1281;69436;-70
2022/09/27 09:58:53;;;;;;;;;;;;;;;17.58;100.00;97244.01;104610;1279;73996;-69
2022/09/27 10:01:25;;;;;;;;;;;;;;;17.71;100.00;97240.14;104472;1279;61454;-70
2022/09/27 10:03:53;;;;;;;;;;;;;;;17.82;100.00;97238.67;104560;1280;61825;-70
2022/09/27 10:06:19;;;;;;;;;;;;;;;17.87;100.00;97236.97;104058;1281;74921;-69
2022/09/27 10:08:46;;;;;;;;;;;;;;;17.97;100.00;97237.73;104503;1280;69738;-69
2022/09/27 10:11:36;;;;;;;;;;;;;;;18.08;100.00;97235.73;104719;1274;73196;-71
2022/09/27 10:14:02;;;;;;;;;;;;;;;18.20;100.00;97230.34;104696;1277;61342;-69
2022/09/27 10:16:29;;;;;;;;;;;;;;;18.24;100.00;97229.23;104731;1277;61263;-69
2022/09/27 10:18:59;;;;;;;;;;;;;;;18.14;100.00;97226.59;104764;1277;74976;-70
2022/09/27 10:21:28;;;;;;;;;;;;;;;18.05;100.00;97225.37;104659;1277;69944;-72
2022/09/27 10:24:03;;;;;;;;;;;;;;;18.03;100.00;97222.44;104653;1278;73464;-72
2022/09/27 10:26:30;;;;;;;;;;;;;;;18.03;100.00;97218.07;104462;1277;61234;-70
2022/09/27 10:28:57;;;;;;;;;;;;;;;17.99;100.00;97215.56;104701;1277;61829;-69
2022/09/27 10:31:32;;;;;;;;;;;;;;;17.94;100.00;97212.04;104490;1278;75204;-70
2022/09/27 10:34:01;;;;;;;;;;;;;;;17.99;100.00;97214.74;104693;1277;69429;-70
2022/09/27 10:36:30;;;;;;;;;;;;;;;18.19;100.00;97210.65;104726;1277;73815;-70
2022/09/27 10:38:57;;;;;;;;;;;;;;;18.35;100.00;97210.57;104684;1277;61475;-70
2022/09/27 10:41:35;;;;;;;;;;;;;;;18.47;100.00;97207.84;104726;1277;61343;-70
2022/09/27 10:44:20;;;;;;;;;;;;;;;18.58;100.00;97207.70;104703;1277;75344;-70
2022/09/27 10:46:49;;;;;;;;;;;;;;;18.54;100.00;97203.31;104737;1277;70443;-70
2022/09/27 10:49:36;;;;;;;;;;;;;;;18.51;100.00;97205.23;104873;1277;73452;-70
2022/09/27 10:52:12;;;;;;;;;;;;;;;18.44;100.00;97199.55;104922;1273;61730;-70
2022/09/27 10:54:40;;;;;;;;;;;;;;;18.47;100.00;97196.33;104976;1273;61896;-70
2022/09/27 10:57:12;;;;;;;;;;;;;;;18.52;100.00;97189.52;105043;1273;75282;-70
2022/09/27 10:59:40;;;;;;;;;;;;;;;18.62;100.00;97186.27;105063;1272;68826;-70
2022/09/27 11:02:26;;;;;;;;;;;;;;;18.70;100.00;97191.02;104998;1273;74262;-70
2022/09/27 11:05:04;;;;;;;;;;;;;;;18.85;100.00;97190.14;104896;1272;61297;-70
2022/09/27 11:07:30;;;;;;;;;;;;;;;18.92;100.00;97195.27;104919;1273;61343;-70
2022/09/27 11:10:03;;;;;;;;;;;;;;;18.91;100.00;97191.40;104924;1273;61387;-69
2022/09/27 11:12:30;;;;;;;;;;;;;;;18.82;100.00;97187.70;104944;1273;69252;-71
2022/09/27 11:15:01;;;;;;;;;;;;;;;18.80;100.00;97185.78;104934;1273;74386;-71
2022/09/27 11:17:31;;;;;;;;;;;;;;;18.83;100.00;97183.39;104976;1273;61339;-70
2022/09/27 11:20:10;;;;;;;;;;;;;;;18.94;100.00;97179.28;104973;1273;61868;-71
2022/09/27 11:23:03;;;;;;;;;;;;;;;19.08;100.00;97177.32;105034;1273;75433;-70
2022/09/27 11:25:32;;;;;;;;;;;;;;;19.20;100.00;97176.24;104916;1276;67390;-71
2022/09/27 11:28:03;;;;;;;;;;;;;;;19.21;100.00;97180.03;104992;1272;74473;-70
2022/09/27 11:30:40;;;;;;;;;;;;;;;19.18;100.00;97174.02;105016;1273;61274;-70
2022/09/27 11:33:26;;;;;;;;;;;;;;;19.20;100.00;97174.09;105055;1273;61236;-70
2022/09/27 11:36:12;;;;;;;;;;;;;;;19.23;100.00;97161.46;104943;1273;75221;-70
2022/09/27 11:38:42;;;;;;;;;;;;;;;19.28;100.00;97160.16;105069;1273;68870;-70
2022/09/27 11:41:38;;;;;;;;;;;;;;;19.30;100.00;97159.13;104872;1273;71886;-71
2022/09/27 11:44:24;;;;;;;;;;;;;;;19.32;100.00;97153.73;104754;1278;61289;-70
2022/09/27 11:47:09;;;;;;;;;;;;;;;19.36;100.00;97148.75;104770;1277;61883;-71
2022/09/27 11:50:02;;;;;;;;;;;;;;;19.43;100.00;97145.44;104750;1277;75355;-71
2022/09/27 11:52:47;;;;;;;;;;;;;;;19.49;100.00;97143.33;104133;1284;69536;-71
2022/09/27 11:55:34;;;;;;;;;;;;;;;19.57;100.00;97142.15;104197;1283;72553;-70
2022/09/27 11:58:01;;;;;;;;;;;;;;;19.68;100.00;97137.23;104161;1283;61346;-70
2022/09/27 12:00:47;;;;;;;;;;;;;;;19.65;100.00;97136.92;104161;1283;61472;-70
2022/09/27 12:03:23;;;;;;;;;;;;;;;19.64;100.00;97131.56;104154;1283;75864;-69
2022/09/27 12:06:01;;;;;;;;;;;;;;;19.67;100.00;97131.42;104184;1282;70969;-69
2022/09/27 12:08:35;;;;;;;;;;;;;;;19.69;100.00;97128.55;104179;1283;73201;-71
2022/09/27 12:11:07;;;;;;;;;;;;;;;19.64;100.00;97128.27;104122;1282;61395;-71
2022/09/27 12:13:45;;;;;;;;;;;;;;;19.69;100.00;97125.11;104204;1283;61850;-70
2022/09/27 12:16:14;;;;;;;;;;;;;;;19.71;100.00;97126.43;104208;1282;75329;-69
2022/09/27 12:18:42;;;;;;;;;;;;;;;19.68;100.00;97127.72;104158;1283;69180;-70
2022/09/27 12:21:10;;;;;;;;;;;;;;;19.56;100.00;97125.22;104336;1279;73535;-71
2022/09/27 12:23:51;;;;;;;;;;;;;;;19.51;100.00;97123.30;104486;1279;61362;-70
2022/09/27 12:26:18;;;;;;;;;;;;;;;19.54;100.00;97116.63;104418;1279;61210;-71
2022/09/27 12:29:04;;;;;;;;;;;;;;;19.54;100.00;97112.46;104535;1279;76767;-69
2022/09/27 12:31:37;;;;;;;;;;;;;;;19.56;100.00;97109.21;104967;1273;68676;-69
2022/09/27 12:34:15;;;;;;;;;;;;;;;19.61;100.00;97108.85;104986;1273;73645;-71
2022/09/27 12:36:45;;;;;;;;;;;;;;;19.68;100.00;97109.72;104886;1273;61432;-70
2022/09/27 12:39:26;;;;;;;;;;;;;;;19.69;100.00;97108.31;104914;1273;61210;-70
2022/09/27 12:42:01;;;;;;;;;;;;;;;19.72;100.00;97103.94;104951;1273;76841;-69
2022/09/27 12:44:32;;;;;;;;;;;;;;;19.67;100.00;97101.81;104897;1272;67395;-69
2022/09/27 12:46:58;;;;;;;;;;;;;;;19.61;100.00;97100.95;104902;1273;74376;-70
2022/09/27 12:49:31;;;;;;;;;;;;;;;19.58;100.00;97097.17;104858;1272;61381;-70
2022/09/27 12:52:01;;;;;;;;;;;;;;;19.54;100.00;97093.51;104875;1273;61278;-70
2022/09/27 12:54:31;;;;;;;;;;;;;;;19.49;100.00;97098.48;104938;1273;74640;-69
2022/09/27 12:57:12;;;;;;;;;;;;;;;19.40;100.00;97110.19;104910;1272;70548;-70